sensor_id;sensor_type;location;lat;lon;timestamp;temperature;humidity
25214;DHT22;13160;51.834;4.706;2022-11-03T00:02:15;13.00;99.90
25214;DHT22;13160;51.834;4.706;2022-11-03T00:04:45;13.00;99.90
25214;DHT22;13160;51.834;4.706;2022-11-03T00:07:19;13.00;99.90
25214;DHT22;13160;51.834;4.706;2022-11-03T00:09:49;13.00;99.90
25214;DHT22;13160;51.834;4.706;2022-11-03T00:12:18;13.00;99.90
25214;DHT22;13160;51.834;4.706;2022-11-03T00:14:48;13.00;99.90
25214;DHT22;13160;51.834;4.706;2022-11-03T00:17:19;13.00;99.90
25214;DHT22;13160;51.834;4.706;2022-11-03T00:19:52;13.00;99.90
25214;DHT22;13160;51.834;4.706;2022-11-03T00:22:21;13.00;99.90
25214;DHT22;13160;51.834;4.706;2022-11-03T00:25:18;13.00;99.90
25214;DHT22;13160;51.834;4.706;2022-11-03T00:27:53;13.00;99.90
25214;DHT22;13160;51.834;4.706;2022-11-03T00:30:23;13.00;99.90
25214;DHT22;13160;51.834;4.706;2022-11-03T00:32:59;13.10;99.90
25214;DHT22;13160;51.834;4.706;2022-11-03T00:35:28;13.00;99.90
25214;DHT22;13160;51.834;4.706;2022-11-03T00:37:57;13.00;99.90
25214;DHT22;13160;51.834;4.706;2022-11-03T00:40:26;13.00;99.90
25214;DHT22;13160;51.834;4.706;2022-11-03T00:42:55;13.00;99.90
25214;DHT22;13160;51.834;4.706;2022-11-03T00:45:24;13.00;99.90
25214;DHT22;13160;51.834;4.706;2022-11-03T00:47:55;13.10;99.90
25214;DHT22;13160;51.834;4.706;2022-11-03T00:50:42;13.00;99.90
25214;DHT22;13160;51.834;4.706;2022-11-03T00:53:17;13.00;99.90
25214;DHT22;13160;51.834;4.706;2022-11-03T00:55:48;13.00;99.90
25214;DHT22;13160;51.834;4.706;2022-11-03T00:58:17;13.00;99.90
25214;DHT22;13160;51.834;4.706;2022-11-03T01:00:46;13.00;99.90
25214;DHT22;13160;51.834;4.706;2022-11-03T01:03:16;13.00;99.90
25214;DHT22;13160;51.834;4.706;2022-11-03T01:05:46;13.10;99.90
25214;DHT22;13160;51.834;4.706;2022-11-03T01:08:33;13.10;99.90
25214;DHT22;13160;51.834;4.706;2022-11-03T01:11:09;13.00;99.90
25214;DHT22;13160;51.834;4.706;2022-11-03T01:13:56;13.10;99.90
25214;DHT22;13160;51.834;4.706;2022-11-03T01:16:26;13.00;99.90
25214;DHT22;13160;51.834;4.706;2022-11-03T01:18:56;13.00;99.90
25214;DHT22;13160;51.834;4.706;2022-11-03T01:21:27;13.00;99.90
25214;DHT22;13160;51.834;4.706;2022-11-03T01:23:59;13.00;99.90
25214;DHT22;13160;51.834;4.706;2022-11-03T01:26:29;13.00;99.90
25214;DHT22;13160;51.834;4.706;2022-11-03T01:28:59;13.00;99.90
25214;DHT22;13160;51.834;4.706;2022-11-03T01:31:28;13.00;99.90
25214;DHT22;13160;51.834;4.706;2022-11-03T01:34:01;13.00;99.90
25214;DHT22;13160;51.834;4.706;2022-11-03T01:36:31;13.00;99.90
25214;DHT22;13160;51.834;4.706;2022-11-03T01:39:01;13.10;99.90
25214;DHT22;13160;51.834;4.706;2022-11-03T01:41:30;13.00;99.90
25214;DHT22;13160;51.834;4.706;2022-11-03T01:44:31;13.00;99.90
25214;DHT22;13160;51.834;4.706;2022-11-03T01:47:19;13.10;99.90
25214;DHT22;13160;51.834;4.706;2022-11-03T01:49:54;13.00;99.90
25214;DHT22;13160;51.834;4.706;2022-11-03T01:52:32;13.00;99.90
25214;DHT22;13160;51.834;4.706;2022-11-03T01:55:05;13.00;99.90
25214;DHT22;13160;51.834;4.706;2022-11-03T01:57:38;13.00;99.90
25214;DHT22;13160;51.834;4.706;2022-11-03T02:00:10;13.00;99.90
25214;DHT22;13160;51.834;4.706;2022-11-03T02:02:40;13.00;99.90
25214;DHT22;13160;51.834;4.706;2022-11-03T02:05:10;13.00;99.90
25214;DHT22;13160;51.834;4.706;2022-11-03T02:07:47;13.00;99.90
25214;DHT22;13160;51.834;4.706;2022-11-03T02:10:19;13.00;99.90
25214;DHT22;13160;51.834;4.706;2022-11-03T02:12:48;12.90;99.90
25214;DHT22;13160;51.834;4.706;2022-11-03T02:15:19;13.00;99.90
25214;DHT22;13160;51.834;4.706;2022-11-03T02:17:53;12.90;99.90
25214;DHT22;13160;51.834;4.706;2022-11-03T02:20:24;13.00;99.90
25214;DHT22;13160;51.834;4.706;2022-11-03T02:23:15;12.90;99.90
25214;DHT22;13160;51.834;4.706;2022-11-03T02:25:54;13.00;99.90
25214;DHT22;13160;51.834;4.706;2022-11-03T02:28:28;12.90;99.90
25214;DHT22;13160;51.834;4.706;2022-11-03T02:31:05;12.90;99.90
25214;DHT22;13160;51.834;4.706;2022-11-03T02:33:45;13.00;99.90
25214;DHT22;13160;51.834;4.706;2022-11-03T02:36:20;13.00;99.90
25214;DHT22;13160;51.834;4.706;2022-11-03T02:39:02;12.90;99.90
25214;DHT22;13160;51.834;4.706;2022-11-03T02:41:42;12.90;99.90
25214;DHT22;13160;51.834;4.706;2022-11-03T02:44:15;12.90;99.90
25214;DHT22;13160;51.834;4.706;2022-11-03T02:46:47;12.90;99.90
25214;DHT22;13160;51.834;4.706;2022-11-03T02:49:19;12.90;99.90
25214;DHT22;13160;51.834;4.706;2022-11-03T02:52:02;12.90;99.90
25214;DHT22;13160;51.834;4.706;2022-11-03T02:54:42;12.90;99.90
25214;DHT22;13160;51.834;4.706;2022-11-03T02:57:21;12.90;99.90
25214;DHT22;13160;51.834;4.706;2022-11-03T02:59:57;12.90;99.90
25214;DHT22;13160;51.834;4.706;2022-11-03T03:02:33;12.90;99.90
25214;DHT22;13160;51.834;4.706;2022-11-03T03:05:09;12.90;99.90
25214;DHT22;13160;51.834;4.706;2022-11-03T03:07:42;12.80;99.90
25214;DHT22;13160;51.834;4.706;2022-11-03T03:10:16;12.90;99.90
25214;DHT22;13160;51.834;4.706;2022-11-03T03:12:49;12.90;99.90
25214;DHT22;13160;51.834;4.706;2022-11-03T03:15:22;12.90;99.90
25214;DHT22;13160;51.834;4.706;2022-11-03T03:18:01;12.90;99.90
25214;DHT22;13160;51.834;4.706;2022-11-03T03:20:40;12.80;99.90
25214;DHT22;13160;51.834;4.706;2022-11-03T03:23:15;12.80;99.90
25214;DHT22;13160;51.834;4.706;2022-11-03T03:25:49;12.80;99.90
25214;DHT22;13160;51.834;4.706;2022-11-03T03:28:27;12.90;99.90
25214;DHT22;13160;51.834;4.706;2022-11-03T03:31:00;12.90;99.90
25214;DHT22;13160;51.834;4.706;2022-11-03T03:33:33;12.90;99.90
25214;DHT22;13160;51.834;4.706;2022-11-03T03:36:09;12.90;99.90
25214;DHT22;13160;51.834;4.706;2022-11-03T03:38:45;12.90;99.90
25214;DHT22;13160;51.834;4.706;2022-11-03T03:41:16;12.90;99.90
25214;DHT22;13160;51.834;4.706;2022-11-03T03:43:52;12.90;99.90
25214;DHT22;13160;51.834;4.706;2022-11-03T03:46:25;12.90;99.90
25214;DHT22;13160;51.834;4.706;2022-11-03T03:49:11;12.90;99.90
25214;DHT22;13160;51.834;4.706;2022-11-03T03:51:40;12.90;99.90
25214;DHT22;13160;51.834;4.706;2022-11-03T03:54:10;12.90;99.90
25214;DHT22;13160;51.834;4.706;2022-11-03T03:56:42;12.90;99.90
25214;DHT22;13160;51.834;4.706;2022-11-03T03:59:15;12.90;99.90
25214;DHT22;13160;51.834;4.706;2022-11-03T04:01:45;12.90;99.90
25214;DHT22;13160;51.834;4.706;2022-11-03T04:04:14;12.90;99.90
25214;DHT22;13160;51.834;4.706;2022-11-03T04:06:44;12.90;99.90
25214;DHT22;13160;51.834;4.706;2022-11-03T04:09:13;12.90;99.90
25214;DHT22;13160;51.834;4.706;2022-11-03T04:11:42;12.90;99.90
25214;DHT22;13160;51.834;4.706;2022-11-03T04:14:31;12.90;99.90
25214;DHT22;13160;51.834;4.706;2022-11-03T04:17:19;12.90;99.90
25214;DHT22;13160;51.834;4.706;2022-11-03T04:20:11;12.80;99.90
25214;DHT22;13160;51.834;4.706;2022-11-03T04:22:58;12.90;99.90
25214;DHT22;13160;51.834;4.706;2022-11-03T04:25:29;12.80;99.90
25214;DHT22;13160;51.834;4.706;2022-11-03T04:27:58;12.90;99.90
25214;DHT22;13160;51.834;4.706;2022-11-03T04:30:34;12.90;99.90
25214;DHT22;13160;51.834;4.706;2022-11-03T04:33:05;12.90;99.90
25214;DHT22;13160;51.834;4.706;2022-11-03T04:35:43;12.90;99.90
25214;DHT22;13160;51.834;4.706;2022-11-03T04:38:21;12.90;99.90
25214;DHT22;13160;51.834;4.706;2022-11-03T04:40:54;12.90;99.90
25214;DHT22;13160;51.834;4.706;2022-11-03T04:43:32;12.90;99.90
25214;DHT22;13160;51.834;4.706;2022-11-03T04:46:04;12.90;99.90
25214;DHT22;13160;51.834;4.706;2022-11-03T04:48:39;12.90;99.90
25214;DHT22;13160;51.834;4.706;2022-11-03T04:51:22;12.90;99.90
25214;DHT22;13160;51.834;4.706;2022-11-03T04:54:12;12.90;99.90
25214;DHT22;13160;51.834;4.706;2022-11-03T04:56:52;13.00;99.90
25214;DHT22;13160;51.834;4.706;2022-11-03T04:59:24;12.90;99.90
25214;DHT22;13160;51.834;4.706;2022-11-03T05:02:09;12.90;99.90
25214;DHT22;13160;51.834;4.706;2022-11-03T05:04:44;13.00;99.90
25214;DHT22;13160;51.834;4.706;2022-11-03T05:07:28;13.00;99.90
25214;DHT22;13160;51.834;4.706;2022-11-03T05:10:12;13.00;99.90
25214;DHT22;13160;51.834;4.706;2022-11-03T05:12:54;13.00;99.90
25214;DHT22;13160;51.834;4.706;2022-11-03T05:15:34;13.00;99.90
25214;DHT22;13160;51.834;4.706;2022-11-03T05:18:16;13.10;99.90
25214;DHT22;13160;51.834;4.706;2022-11-03T05:20:52;13.10;99.90
25214;DHT22;13160;51.834;4.706;2022-11-03T05:23:24;13.10;99.90
25214;DHT22;13160;51.834;4.706;2022-11-03T05:25:58;13.10;99.90
25214;DHT22;13160;51.834;4.706;2022-11-03T05:28:30;13.20;99.90
25214;DHT22;13160;51.834;4.706;2022-11-03T05:31:17;13.10;99.90
25214;DHT22;13160;51.834;4.706;2022-11-03T05:33:56;13.20;99.90
25214;DHT22;13160;51.834;4.706;2022-11-03T05:36:29;13.20;99.90
25214;DHT22;13160;51.834;4.706;2022-11-03T05:39:16;13.20;99.90
25214;DHT22;13160;51.834;4.706;2022-11-03T05:41:54;13.20;99.90
25214;DHT22;13160;51.834;4.706;2022-11-03T05:44:27;13.30;99.90
25214;DHT22;13160;51.834;4.706;2022-11-03T05:47:00;13.20;99.90
25214;DHT22;13160;51.834;4.706;2022-11-03T05:49:35;13.20;99.90
25214;DHT22;13160;51.834;4.706;2022-11-03T05:52:05;13.20;99.90
25214;DHT22;13160;51.834;4.706;2022-11-03T05:54:41;13.20;99.90
25214;DHT22;13160;51.834;4.706;2022-11-03T05:57:13;13.20;99.90
25214;DHT22;13160;51.834;4.706;2022-11-03T05:59:43;13.20;99.90
25214;DHT22;13160;51.834;4.706;2022-11-03T06:02:27;13.20;99.90
25214;DHT22;13160;51.834;4.706;2022-11-03T06:05:11;13.30;99.90
25214;DHT22;13160;51.834;4.706;2022-11-03T06:07:48;13.20;99.90
25214;DHT22;13160;51.834;4.706;2022-11-03T06:11:19;13.30;99.90
25214;DHT22;13160;51.834;4.706;2022-11-03T06:15:26;13.20;99.90
25214;DHT22;13160;51.834;4.706;2022-11-03T06:26:24;13.20;99.90
25214;DHT22;13160;51.834;4.706;2022-11-03T06:33:52;13.10;99.90
25214;DHT22;13160;51.834;4.706;2022-11-03T06:36:24;13.20;99.90
25214;DHT22;13160;51.834;4.706;2022-11-03T06:39:17;13.10;99.90
25214;DHT22;13160;51.834;4.706;2022-11-03T06:41:54;13.20;99.90
25214;DHT22;13160;51.834;4.706;2022-11-03T06:48:19;13.20;99.90
25214;DHT22;13160;51.834;4.706;2022-11-03T07:10:06;13.30;99.90
25214;DHT22;13160;51.834;4.706;2022-11-03T07:17:26;13.30;99.90
25214;DHT22;13160;51.834;4.706;2022-11-03T07:21:00;13.30;99.90
25214;DHT22;13160;51.834;4.706;2022-11-03T07:24:46;13.40;99.90
25214;DHT22;13160;51.834;4.706;2022-11-03T07:27:20;13.30;99.90
25214;DHT22;13160;51.834;4.706;2022-11-03T07:30:12;13.30;99.90
25214;DHT22;13160;51.834;4.706;2022-11-03T07:32:53;13.40;99.90
25214;DHT22;13160;51.834;4.706;2022-11-03T07:35:31;13.40;99.90
25214;DHT22;13160;51.834;4.706;2022-11-03T07:38:34;13.40;99.90
25214;DHT22;13160;51.834;4.706;2022-11-03T07:41:11;13.50;99.90
25214;DHT22;13160;51.834;4.706;2022-11-03T07:44:04;13.40;99.90
25214;DHT22;13160;51.834;4.706;2022-11-03T07:46:50;13.50;99.90
25214;DHT22;13160;51.834;4.706;2022-11-03T07:49:41;13.60;99.90
25214;DHT22;13160;51.834;4.706;2022-11-03T07:52:15;13.60;99.90
25214;DHT22;13160;51.834;4.706;2022-11-03T07:55:10;13.60;99.90
25214;DHT22;13160;51.834;4.706;2022-11-03T07:57:48;13.60;99.90
25214;DHT22;13160;51.834;4.706;2022-11-03T08:00:26;13.60;99.90
25214;DHT22;13160;51.834;4.706;2022-11-03T08:03:41;13.60;99.90
25214;DHT22;13160;51.834;4.706;2022-11-03T08:06:32;13.70;99.90
25214;DHT22;13160;51.834;4.706;2022-11-03T08:09:40;13.70;99.90
25214;DHT22;13160;51.834;4.706;2022-11-03T08:12:12;13.80;99.90
25214;DHT22;13160;51.834;4.706;2022-11-03T08:14:53;13.70;99.90
25214;DHT22;13160;51.834;4.706;2022-11-03T08:17:42;13.80;99.90
25214;DHT22;13160;51.834;4.706;2022-11-03T08:20:42;13.80;99.90
25214;DHT22;13160;51.834;4.706;2022-11-03T08:23:38;13.80;99.90
25214;DHT22;13160;51.834;4.706;2022-11-03T08:26:52;13.90;99.90
25214;DHT22;13160;51.834;4.706;2022-11-03T08:29:44;13.90;99.90
25214;DHT22;13160;51.834;4.706;2022-11-03T08:32:33;13.90;99.90
25214;DHT22;13160;51.834;4.706;2022-11-03T08:35:32;13.90;99.90
25214;DHT22;13160;51.834;4.706;2022-11-03T08:38:07;13.90;99.90
25214;DHT22;13160;51.834;4.706;2022-11-03T08:40:45;14.00;99.90
25214;DHT22;13160;51.834;4.706;2022-11-03T08:43:53;14.00;99.90
25214;DHT22;13160;51.834;4.706;2022-11-03T08:46:30;14.00;99.90
25214;DHT22;13160;51.834;4.706;2022-11-03T08:49:10;14.10;99.90
25214;DHT22;13160;51.834;4.706;2022-11-03T08:51:42;14.20;99.90
25214;DHT22;13160;51.834;4.706;2022-11-03T08:54:13;14.20;99.90
25214;DHT22;13160;51.834;4.706;2022-11-03T08:56:53;14.10;99.90
25214;DHT22;13160;51.834;4.706;2022-11-03T08:59:24;14.30;99.90
25214;DHT22;13160;51.834;4.706;2022-11-03T09:01:57;14.20;99.90
25214;DHT22;13160;51.834;4.706;2022-11-03T09:04:34;14.30;99.90
25214;DHT22;13160;51.834;4.706;2022-11-03T09:07:20;14.30;99.90
25214;DHT22;13160;51.834;4.706;2022-11-03T09:10:11;14.30;99.90
25214;DHT22;13160;51.834;4.706;2022-11-03T09:12:47;14.40;99.90
25214;DHT22;13160;51.834;4.706;2022-11-03T09:15:22;14.40;99.90
25214;DHT22;13160;51.834;4.706;2022-11-03T09:17:57;14.40;99.90
25214;DHT22;13160;51.834;4.706;2022-11-03T09:20:35;14.40;99.90
25214;DHT22;13160;51.834;4.706;2022-11-03T09:23:05;14.50;99.90
25214;DHT22;13160;51.834;4.706;2022-11-03T09:25:39;14.50;99.90
25214;DHT22;13160;51.834;4.706;2022-11-03T09:28:24;14.50;99.90
25214;DHT22;13160;51.834;4.706;2022-11-03T09:30:55;14.60;99.90
25214;DHT22;13160;51.834;4.706;2022-11-03T09:33:45;14.60;99.90
25214;DHT22;13160;51.834;4.706;2022-11-03T09:36:37;14.60;99.90
25214;DHT22;13160;51.834;4.706;2022-11-03T09:39:07;14.60;99.90
25214;DHT22;13160;51.834;4.706;2022-11-03T09:41:43;14.60;99.90
25214;DHT22;13160;51.834;4.706;2022-11-03T09:44:26;14.70;99.90
25214;DHT22;13160;51.834;4.706;2022-11-03T09:47:17;14.60;99.90
25214;DHT22;13160;51.834;4.706;2022-11-03T09:49:50;14.70;99.90
25214;DHT22;13160;51.834;4.706;2022-11-03T09:52:26;14.60;99.90
25214;DHT22;13160;51.834;4.706;2022-11-03T09:54:57;14.70;99.90
25214;DHT22;13160;51.834;4.706;2022-11-03T09:57:31;14.70;99.90
25214;DHT22;13160;51.834;4.706;2022-11-03T10:00:17;14.70;99.90
25214;DHT22;13160;51.834;4.706;2022-11-03T10:03:29;14.70;99.90
25214;DHT22;13160;51.834;4.706;2022-11-03T10:05:59;14.70;99.90
25214;DHT22;13160;51.834;4.706;2022-11-03T10:08:34;14.80;99.90
25214;DHT22;13160;51.834;4.706;2022-11-03T10:11:08;14.80;99.90
25214;DHT22;13160;51.834;4.706;2022-11-03T10:13:45;14.80;99.90
25214;DHT22;13160;51.834;4.706;2022-11-03T10:16:29;14.90;99.90
25214;DHT22;13160;51.834;4.706;2022-11-03T10:19:00;14.90;99.90
25214;DHT22;13160;51.834;4.706;2022-11-03T10:21:53;14.90;99.90
25214;DHT22;13160;51.834;4.706;2022-11-03T10:24:25;15.00;99.90
25214;DHT22;13160;51.834;4.706;2022-11-03T10:26:54;14.90;99.90
25214;DHT22;13160;51.834;4.706;2022-11-03T10:29:25;14.90;99.90
25214;DHT22;13160;51.834;4.706;2022-11-03T10:32:00;15.00;99.90
25214;DHT22;13160;51.834;4.706;2022-11-03T10:34:34;15.00;99.90
25214;DHT22;13160;51.834;4.706;2022-11-03T10:37:14;15.00;99.90
25214;DHT22;13160;51.834;4.706;2022-11-03T10:39:50;15.00;99.90
25214;DHT22;13160;51.834;4.706;2022-11-03T10:50:21;15.10;99.90
25214;DHT22;13160;51.834;4.706;2022-11-03T10:52:54;15.20;99.90
25214;DHT22;13160;51.834;4.706;2022-11-03T10:55:28;15.20;99.90
25214;DHT22;13160;51.834;4.706;2022-11-03T10:57:59;15.30;99.90
25214;DHT22;13160;51.834;4.706;2022-11-03T11:00:43;15.20;99.90
25214;DHT22;13160;51.834;4.706;2022-11-03T11:03:16;15.20;99.90
25214;DHT22;13160;51.834;4.706;2022-11-03T11:05:51;15.30;99.90
25214;DHT22;13160;51.834;4.706;2022-11-03T11:09:02;15.20;99.90
25214;DHT22;13160;51.834;4.706;2022-11-03T11:11:57;15.30;99.90
25214;DHT22;13160;51.834;4.706;2022-11-03T11:14:36;15.20;99.90
25214;DHT22;13160;51.834;4.706;2022-11-03T11:17:44;15.30;99.90
25214;DHT22;13160;51.834;4.706;2022-11-03T11:20:42;15.40;99.90
25214;DHT22;13160;51.834;4.706;2022-11-03T11:23:52;15.40;99.90
25214;DHT22;13160;51.834;4.706;2022-11-03T11:33:47;15.50;99.90
25214;DHT22;13160;51.834;4.706;2022-11-03T11:36:45;15.50;99.90
25214;DHT22;13160;51.834;4.706;2022-11-03T11:43:35;15.60;99.90
25214;DHT22;13160;51.834;4.706;2022-11-03T11:46:38;15.60;99.90
25214;DHT22;13160;51.834;4.706;2022-11-03T11:49:23;15.70;99.90
25214;DHT22;13160;51.834;4.706;2022-11-03T11:52:12;15.80;99.90
25214;DHT22;13160;51.834;4.706;2022-11-03T11:54:47;15.80;99.90
25214;DHT22;13160;51.834;4.706;2022-11-03T11:57:19;15.90;99.90
25214;DHT22;13160;51.834;4.706;2022-11-03T11:59:52;15.80;99.90
25214;DHT22;13160;51.834;4.706;2022-11-03T12:02:28;15.90;99.90
25214;DHT22;13160;51.834;4.706;2022-11-03T12:05:29;16.00;99.90
25214;DHT22;13160;51.834;4.706;2022-11-03T12:08:09;16.00;99.90
25214;DHT22;13160;51.834;4.706;2022-11-03T12:10:55;16.00;99.90
25214;DHT22;13160;51.834;4.706;2022-11-03T12:13:50;16.10;99.90
25214;DHT22;13160;51.834;4.706;2022-11-03T12:16:30;16.10;99.90
25214;DHT22;13160;51.834;4.706;2022-11-03T12:19:55;16.00;99.90
25214;DHT22;13160;51.834;4.706;2022-11-03T12:22:41;16.10;99.90
25214;DHT22;13160;51.834;4.706;2022-11-03T12:25:46;16.10;99.90
25214;DHT22;13160;51.834;4.706;2022-11-03T12:28:30;16.20;99.90
25214;DHT22;13160;51.834;4.706;2022-11-03T12:31:11;16.30;99.90
25214;DHT22;13160;51.834;4.706;2022-11-03T12:34:01;16.40;99.90
25214;DHT22;13160;51.834;4.706;2022-11-03T12:37:02;16.30;99.90
25214;DHT22;13160;51.834;4.706;2022-11-03T12:39:35;16.40;99.90
25214;DHT22;13160;51.834;4.706;2022-11-03T12:42:06;16.40;99.90
25214;DHT22;13160;51.834;4.706;2022-11-03T12:44:45;16.40;99.90
25214;DHT22;13160;51.834;4.706;2022-11-03T12:47:31;16.60;99.90
25214;DHT22;13160;51.834;4.706;2022-11-03T12:50:01;16.50;99.90
25214;DHT22;13160;51.834;4.706;2022-11-03T12:52:35;16.60;99.90
25214;DHT22;13160;51.834;4.706;2022-11-03T12:55:13;16.60;99.90
25214;DHT22;13160;51.834;4.706;2022-11-03T12:57:49;16.60;99.90
25214;DHT22;13160;51.834;4.706;2022-11-03T13:00:17;16.60;99.90
25214;DHT22;13160;51.834;4.706;2022-11-03T13:03:07;16.60;99.90
25214;DHT22;13160;51.834;4.706;2022-11-03T13:05:42;16.60;99.90
25214;DHT22;13160;51.834;4.706;2022-11-03T13:08:15;16.60;99.90
25214;DHT22;13160;51.834;4.706;2022-11-03T13:10:54;16.60;99.90
25214;DHT22;13160;51.834;4.706;2022-11-03T13:13:43;16.60;99.90
25214;DHT22;13160;51.834;4.706;2022-11-03T13:16:16;16.60;99.90
25214;DHT22;13160;51.834;4.706;2022-11-03T13:18:53;16.70;99.90
25214;DHT22;13160;51.834;4.706;2022-11-03T13:21:25;16.70;99.90
25214;DHT22;13160;51.834;4.706;2022-11-03T13:28:42;16.80;99.90
25214;DHT22;13160;51.834;4.706;2022-11-03T13:31:34;16.80;99.90
25214;DHT22;13160;51.834;4.706;2022-11-03T13:34:59;16.80;99.90
25214;DHT22;13160;51.834;4.706;2022-11-03T13:38:07;16.80;99.90
25214;DHT22;13160;51.834;4.706;2022-11-03T13:41:14;16.70;99.90
25214;DHT22;13160;51.834;4.706;2022-11-03T13:44:48;16.80;99.90
25214;DHT22;13160;51.834;4.706;2022-11-03T13:47:18;16.70;99.90
25214;DHT22;13160;51.834;4.706;2022-11-03T13:50:08;16.70;99.90
25214;DHT22;13160;51.834;4.706;2022-11-03T13:52:41;16.60;99.90
25214;DHT22;13160;51.834;4.706;2022-11-03T13:55:12;16.70;99.90
25214;DHT22;13160;51.834;4.706;2022-11-03T13:58:03;16.60;99.90
25214;DHT22;13160;51.834;4.706;2022-11-03T14:01:07;16.60;99.90
25214;DHT22;13160;51.834;4.706;2022-11-03T14:03:38;16.50;99.90
25214;DHT22;13160;51.834;4.706;2022-11-03T14:06:32;16.60;99.90
25214;DHT22;13160;51.834;4.706;2022-11-03T14:09:03;16.50;99.90
25214;DHT22;13160;51.834;4.706;2022-11-03T14:11:32;16.50;99.90
25214;DHT22;13160;51.834;4.706;2022-11-03T14:14:19;16.40;99.90
25214;DHT22;13160;51.834;4.706;2022-11-03T14:16:53;16.40;99.90
25214;DHT22;13160;51.834;4.706;2022-11-03T14:19:24;16.40;99.90
25214;DHT22;13160;51.834;4.706;2022-11-03T14:22:16;16.40;99.90
25214;DHT22;13160;51.834;4.706;2022-11-03T14:24:51;16.40;99.90
25214;DHT22;13160;51.834;4.706;2022-11-03T14:27:20;16.40;99.90
25214;DHT22;13160;51.834;4.706;2022-11-03T14:29:51;16.40;99.90
25214;DHT22;13160;51.834;4.706;2022-11-03T14:32:23;16.40;99.90
25214;DHT22;13160;51.834;4.706;2022-11-03T14:34:54;16.40;99.90
25214;DHT22;13160;51.834;4.706;2022-11-03T14:37:24;16.40;99.90
25214;DHT22;13160;51.834;4.706;2022-11-03T14:39:54;16.40;99.90
25214;DHT22;13160;51.834;4.706;2022-11-03T14:42:24;16.40;99.90
25214;DHT22;13160;51.834;4.706;2022-11-03T14:44:59;16.30;99.90
25214;DHT22;13160;51.834;4.706;2022-11-03T14:47:57;16.40;99.90
25214;DHT22;13160;51.834;4.706;2022-11-03T14:50:26;16.30;99.90
25214;DHT22;13160;51.834;4.706;2022-11-03T14:52:54;16.20;99.90
25214;DHT22;13160;51.834;4.706;2022-11-03T14:55:29;16.20;99.90
25214;DHT22;13160;51.834;4.706;2022-11-03T14:57:59;16.10;99.90
25214;DHT22;13160;51.834;4.706;2022-11-03T15:00:28;16.00;99.90
25214;DHT22;13160;51.834;4.706;2022-11-03T15:03:12;16.00;99.90
25214;DHT22;13160;51.834;4.706;2022-11-03T15:05:41;15.90;99.90
25214;DHT22;13160;51.834;4.706;2022-11-03T15:08:14;15.80;99.90
25214;DHT22;13160;51.834;4.706;2022-11-03T15:10:45;15.80;99.90
25214;DHT22;13160;51.834;4.706;2022-11-03T15:13:14;15.70;99.90
25214;DHT22;13160;51.834;4.706;2022-11-03T15:15:47;15.70;99.90
25214;DHT22;13160;51.834;4.706;2022-11-03T15:18:40;15.60;99.90
25214;DHT22;13160;51.834;4.706;2022-11-03T15:22:09;15.60;99.90
25214;DHT22;13160;51.834;4.706;2022-11-03T15:25:54;15.50;99.90
25214;DHT22;13160;51.834;4.706;2022-11-03T15:29:45;15.40;99.90
25214;DHT22;13160;51.834;4.706;2022-11-03T15:45:12;15.20;99.90
25214;DHT22;13160;51.834;4.706;2022-11-03T15:47:49;15.10;99.90
25214;DHT22;13160;51.834;4.706;2022-11-03T15:50:37;15.00;99.90
25214;DHT22;13160;51.834;4.706;2022-11-03T15:53:08;15.00;99.90
25214;DHT22;13160;51.834;4.706;2022-11-03T15:55:40;15.00;99.90
25214;DHT22;13160;51.834;4.706;2022-11-03T15:58:44;15.00;99.90
25214;DHT22;13160;51.834;4.706;2022-11-03T16:01:40;14.90;99.90
25214;DHT22;13160;51.834;4.706;2022-11-03T16:04:20;14.80;99.90
25214;DHT22;13160;51.834;4.706;2022-11-03T16:07:02;14.80;99.90
25214;DHT22;13160;51.834;4.706;2022-11-03T16:10:00;14.80;99.90
25214;DHT22;13160;51.834;4.706;2022-11-03T16:12:31;14.80;99.90
25214;DHT22;13160;51.834;4.706;2022-11-03T16:15:36;14.70;99.90
25214;DHT22;13160;51.834;4.706;2022-11-03T16:59:50;14.10;99.90
25214;DHT22;13160;51.834;4.706;2022-11-03T17:28:14;13.80;99.90
25214;DHT22;13160;51.834;4.706;2022-11-03T17:30:47;13.80;99.90
25214;DHT22;13160;51.834;4.706;2022-11-03T17:33:25;13.70;99.90
25214;DHT22;13160;51.834;4.706;2022-11-03T17:35:54;13.80;99.90
25214;DHT22;13160;51.834;4.706;2022-11-03T17:38:24;13.70;99.90
25214;DHT22;13160;51.834;4.706;2022-11-03T17:40:55;13.70;99.90
25214;DHT22;13160;51.834;4.706;2022-11-03T17:43:25;13.80;99.90
25214;DHT22;13160;51.834;4.706;2022-11-03T17:45:56;13.70;99.90
25214;DHT22;13160;51.834;4.706;2022-11-03T17:48:24;13.70;99.90
25214;DHT22;13160;51.834;4.706;2022-11-03T17:50:54;13.70;99.90
25214;DHT22;13160;51.834;4.706;2022-11-03T17:53:25;13.60;99.90
25214;DHT22;13160;51.834;4.706;2022-11-03T17:55:58;13.70;99.90
25214;DHT22;13160;51.834;4.706;2022-11-03T17:58:49;13.70;99.90
25214;DHT22;13160;51.834;4.706;2022-11-03T18:01:26;13.60;99.90
25214;DHT22;13160;51.834;4.706;2022-11-03T18:03:55;13.60;99.90
25214;DHT22;13160;51.834;4.706;2022-11-03T18:06:25;13.60;99.90
25214;DHT22;13160;51.834;4.706;2022-11-03T18:08:54;13.60;99.90
25214;DHT22;13160;51.834;4.706;2022-11-03T18:11:27;13.60;99.90
25214;DHT22;13160;51.834;4.706;2022-11-03T18:14:16;13.60;99.90
25214;DHT22;13160;51.834;4.706;2022-11-03T18:16:46;13.60;99.90
25214;DHT22;13160;51.834;4.706;2022-11-03T18:19:17;13.60;99.90
25214;DHT22;13160;51.834;4.706;2022-11-03T18:21:49;13.60;99.90
25214;DHT22;13160;51.834;4.706;2022-11-03T18:24:19;13.60;99.90
25214;DHT22;13160;51.834;4.706;2022-11-03T18:26:50;13.60;99.90
25214;DHT22;13160;51.834;4.706;2022-11-03T18:29:18;13.50;99.90
25214;DHT22;13160;51.834;4.706;2022-11-03T18:31:48;13.60;99.90
25214;DHT22;13160;51.834;4.706;2022-11-03T18:34:20;13.60;99.90
25214;DHT22;13160;51.834;4.706;2022-11-03T18:36:51;13.60;99.90
25214;DHT22;13160;51.834;4.706;2022-11-03T18:39:23;13.60;99.90
25214;DHT22;13160;51.834;4.706;2022-11-03T18:41:54;13.60;99.90
25214;DHT22;13160;51.834;4.706;2022-11-03T18:44:25;13.60;99.90
25214;DHT22;13160;51.834;4.706;2022-11-03T18:47:24;13.60;99.90
25214;DHT22;13160;51.834;4.706;2022-11-03T18:54:04;13.50;99.90
25214;DHT22;13160;51.834;4.706;2022-11-03T19:02:26;13.50;99.90
25214;DHT22;13160;51.834;4.706;2022-11-03T19:04:55;13.60;99.90
25214;DHT22;13160;51.834;4.706;2022-11-03T19:07:30;13.50;99.90
25214;DHT22;13160;51.834;4.706;2022-11-03T19:10:11;13.50;99.90
25214;DHT22;13160;51.834;4.706;2022-11-03T19:13:01;13.60;99.90
25214;DHT22;13160;51.834;4.706;2022-11-03T19:15:33;13.50;99.90
25214;DHT22;13160;51.834;4.706;2022-11-03T19:18:03;13.50;99.90
25214;DHT22;13160;51.834;4.706;2022-11-03T19:20:33;13.50;99.90
25214;DHT22;13160;51.834;4.706;2022-11-03T19:23:02;13.50;99.90
25214;DHT22;13160;51.834;4.706;2022-11-03T19:25:31;13.60;99.90